LKTB/BRQ METAR and TAF weather

Enter ICAO airport designator
Station Type Date Time Source
LKTB METAR 2020/11/27 14:31 UTC NOAA

LKTB 271431Z 21004KT 0600 R27/1200D FG OVC002 00/00 Q1022 RMK REG QNH 1018


Station Type Date Time Source
LKTB Decoded METAR 2020/11/27 14:31 UTC NOAA

Brno / Turany, Czech Republic (LKTB) 49-09N 016-42E 246M
Nov 27, 2020 - 09:31 AM EST / 2020.11.27 1431 UTC
Wind: from the SSW (210 degrees) at 5 MPH (4 KT):0
Visibility: less than 1 mile:0
Sky conditions: overcast
Weather: fog
Temperature: 32 F (0 C)
Windchill: 26 F (-3 C):1
Dew Point: 32 F (0 C)
Relative Humidity: 100%
Pressure (altimeter): 30.18 in. Hg (1022 hPa)
ob: LKTB 271431Z 21004KT 0600 R27/1200D FG OVC002 00/00 Q1022 RMK REG QNH 1018
cycle: 14

Station Type Date Time Source
LKTB TAF 2020/11/27 13:51 UTC NOAA

TAF
AMD LKTB 271345Z 2713/2818 22003KT 0600 FG OVC001
TEMPO 2713/2720 1100 BR OVC002 PROB30
TEMPO 2713/2717 2000 BR OVC003
TEMPO 2720/2809 0300 FZFG VV001
BECMG 2809/2811 04003KT 5000 BR BKN013
BECMG 2811/2813 9999 BKN020

Example: see airport list